sensor_id;sensor_type;location;lat;lon;timestamp;temperature;humidity
33095;DHT22;19459;53.044;8.910;2022-09-13T00:00:56;17.00;99.90
33095;DHT22;19459;53.044;8.910;2022-09-13T00:03:23;17.00;99.90
33095;DHT22;19459;53.044;8.910;2022-09-13T00:05:49;17.00;99.90
33095;DHT22;19459;53.044;8.910;2022-09-13T00:08:15;17.00;99.90
33095;DHT22;19459;53.044;8.910;2022-09-13T00:10:42;17.10;99.90
33095;DHT22;19459;53.044;8.910;2022-09-13T00:13:11;17.00;99.90
33095;DHT22;19459;53.044;8.910;2022-09-13T00:15:48;17.10;99.90
33095;DHT22;19459;53.044;8.910;2022-09-13T00:18:15;17.00;99.90
33095;DHT22;19459;53.044;8.910;2022-09-13T00:20:43;17.10;99.90
33095;DHT22;19459;53.044;8.910;2022-09-13T00:23:10;17.10;99.90
33095;DHT22;19459;53.044;8.910;2022-09-13T00:25:37;17.10;99.90
33095;DHT22;19459;53.044;8.910;2022-09-13T00:28:03;17.20;99.90
33095;DHT22;19459;53.044;8.910;2022-09-13T00:30:30;17.20;99.90
33095;DHT22;19459;53.044;8.910;2022-09-13T00:32:56;17.20;99.90
33095;DHT22;19459;53.044;8.910;2022-09-13T00:35:23;17.30;99.90
33095;DHT22;19459;53.044;8.910;2022-09-13T00:37:49;17.30;99.90
33095;DHT22;19459;53.044;8.910;2022-09-13T00:40:16;17.30;99.90
33095;DHT22;19459;53.044;8.910;2022-09-13T00:42:42;17.30;99.90
33095;DHT22;19459;53.044;8.910;2022-09-13T00:50:34;17.20;99.90
33095;DHT22;19459;53.044;8.910;2022-09-13T00:53:40;17.00;99.90
33095;DHT22;19459;53.044;8.910;2022-09-13T00:56:03;17.10;99.90
33095;DHT22;19459;53.044;8.910;2022-09-13T00:58:43;17.00;99.90
33095;DHT22;19459;53.044;8.910;2022-09-13T01:01:16;17.00;99.90
33095;DHT22;19459;53.044;8.910;2022-09-13T01:03:46;16.90;99.90
33095;DHT22;19459;53.044;8.910;2022-09-13T01:06:17;16.70;99.90
33095;DHT22;19459;53.044;8.910;2022-09-13T01:08:51;16.60;99.90
33095;DHT22;19459;53.044;8.910;2022-09-13T01:12:00;16.50;99.90
33095;DHT22;19459;53.044;8.910;2022-09-13T01:14:30;16.40;99.90
33095;DHT22;19459;53.044;8.910;2022-09-13T01:16:57;16.40;99.90
33095;DHT22;19459;53.044;8.910;2022-09-13T01:19:23;16.50;99.90
33095;DHT22;19459;53.044;8.910;2022-09-13T01:51:49;16.20;99.90
33095;DHT22;19459;53.044;8.910;2022-09-13T01:57:20;16.20;99.90
33095;DHT22;19459;53.044;8.910;2022-09-13T02:00:11;16.20;99.90
33095;DHT22;19459;53.044;8.910;2022-09-13T02:02:52;16.20;99.90
33095;DHT22;19459;53.044;8.910;2022-09-13T02:05:58;16.30;99.90
33095;DHT22;19459;53.044;8.910;2022-09-13T02:08:31;16.30;99.90
33095;DHT22;19459;53.044;8.910;2022-09-13T02:11:15;16.30;99.90
33095;DHT22;19459;53.044;8.910;2022-09-13T02:13:54;16.30;99.90
33095;DHT22;19459;53.044;8.910;2022-09-13T02:16:29;16.20;99.90
33095;DHT22;19459;53.044;8.910;2022-09-13T02:19:05;16.20;99.90
33095;DHT22;19459;53.044;8.910;2022-09-13T02:21:37;16.30;99.90
33095;DHT22;19459;53.044;8.910;2022-09-13T02:24:12;16.30;99.90
33095;DHT22;19459;53.044;8.910;2022-09-13T02:26:42;16.30;99.90
33095;DHT22;19459;53.044;8.910;2022-09-13T02:29:13;16.30;99.90
33095;DHT22;19459;53.044;8.910;2022-09-13T02:31:59;16.30;99.90
33095;DHT22;19459;53.044;8.910;2022-09-13T02:34:55;16.30;99.90
33095;DHT22;19459;53.044;8.910;2022-09-13T02:37:26;16.30;99.90
33095;DHT22;19459;53.044;8.910;2022-09-13T02:40:04;16.30;99.90
33095;DHT22;19459;53.044;8.910;2022-09-13T02:42:46;16.30;99.90
33095;DHT22;19459;53.044;8.910;2022-09-13T02:45:17;16.30;99.90
33095;DHT22;19459;53.044;8.910;2022-09-13T02:47:57;16.30;99.90
33095;DHT22;19459;53.044;8.910;2022-09-13T02:53:45;16.30;99.90
33095;DHT22;19459;53.044;8.910;2022-09-13T02:56:43;16.40;99.90
33095;DHT22;19459;53.044;8.910;2022-09-13T02:59:19;16.30;99.90
33095;DHT22;19459;53.044;8.910;2022-09-13T03:01:55;16.40;99.90
33095;DHT22;19459;53.044;8.910;2022-09-13T03:04:25;16.30;99.90
33095;DHT22;19459;53.044;8.910;2022-09-13T03:06:52;16.30;99.90
33095;DHT22;19459;53.044;8.910;2022-09-13T03:09:18;16.20;99.90
33095;DHT22;19459;53.044;8.910;2022-09-13T03:14:54;16.20;99.90
33095;DHT22;19459;53.044;8.910;2022-09-13T03:20:29;16.20;99.90
33095;DHT22;19459;53.044;8.910;2022-09-13T03:26:28;16.20;99.90
33095;DHT22;19459;53.044;8.910;2022-09-13T03:29:22;16.20;99.90
33095;DHT22;19459;53.044;8.910;2022-09-13T03:32:17;16.20;99.90
33095;DHT22;19459;53.044;8.910;2022-09-13T03:38:04;16.10;99.90
33095;DHT22;19459;53.044;8.910;2022-09-13T03:43:16;16.10;99.90
33095;DHT22;19459;53.044;8.910;2022-09-13T03:45:56;16.10;99.90
33095;DHT22;19459;53.044;8.910;2022-09-13T03:48:24;16.10;99.90
33095;DHT22;19459;53.044;8.910;2022-09-13T03:50:52;16.10;99.90
33095;DHT22;19459;53.044;8.910;2022-09-13T03:53:22;16.10;99.90
33095;DHT22;19459;53.044;8.910;2022-09-13T03:55:50;16.20;99.90
33095;DHT22;19459;53.044;8.910;2022-09-13T03:58:18;16.20;99.90
33095;DHT22;19459;53.044;8.910;2022-09-13T04:00:45;16.20;99.90
33095;DHT22;19459;53.044;8.910;2022-09-13T04:03:12;16.20;99.90
33095;DHT22;19459;53.044;8.910;2022-09-13T04:05:38;16.20;99.90
33095;DHT22;19459;53.044;8.910;2022-09-13T04:08:05;16.20;99.90
33095;DHT22;19459;53.044;8.910;2022-09-13T04:10:34;16.30;99.90
33095;DHT22;19459;53.044;8.910;2022-09-13T04:13:01;16.30;99.90
33095;DHT22;19459;53.044;8.910;2022-09-13T04:15:27;16.40;99.90
33095;DHT22;19459;53.044;8.910;2022-09-13T04:17:53;16.40;99.90
33095;DHT22;19459;53.044;8.910;2022-09-13T04:20:19;16.40;99.90
33095;DHT22;19459;53.044;8.910;2022-09-13T04:22:52;16.40;99.90
33095;DHT22;19459;53.044;8.910;2022-09-13T04:25:19;16.40;99.90
33095;DHT22;19459;53.044;8.910;2022-09-13T04:27:46;16.40;99.90
33095;DHT22;19459;53.044;8.910;2022-09-13T04:30:13;16.40;99.90
33095;DHT22;19459;53.044;8.910;2022-09-13T04:32:42;16.50;99.90
33095;DHT22;19459;53.044;8.910;2022-09-13T04:35:09;16.50;99.90
33095;DHT22;19459;53.044;8.910;2022-09-13T04:37:36;16.50;99.90
33095;DHT22;19459;53.044;8.910;2022-09-13T04:40:04;16.50;99.90
33095;DHT22;19459;53.044;8.910;2022-09-13T04:42:33;16.50;99.90
33095;DHT22;19459;53.044;8.910;2022-09-13T04:44:59;16.50;99.90
33095;DHT22;19459;53.044;8.910;2022-09-13T04:47:25;16.50;99.90
33095;DHT22;19459;53.044;8.910;2022-09-13T04:49:51;16.60;99.90
33095;DHT22;19459;53.044;8.910;2022-09-13T04:52:17;16.60;99.90
33095;DHT22;19459;53.044;8.910;2022-09-13T04:54:42;16.50;99.90
33095;DHT22;19459;53.044;8.910;2022-09-13T04:57:08;16.50;99.90
33095;DHT22;19459;53.044;8.910;2022-09-13T04:59:34;16.50;99.90
33095;DHT22;19459;53.044;8.910;2022-09-13T05:02:00;16.50;99.90
33095;DHT22;19459;53.044;8.910;2022-09-13T05:04:25;16.60;99.90
33095;DHT22;19459;53.044;8.910;2022-09-13T05:06:51;16.50;99.90
33095;DHT22;19459;53.044;8.910;2022-09-13T05:09:17;16.50;99.90
33095;DHT22;19459;53.044;8.910;2022-09-13T05:11:42;16.50;99.90
33095;DHT22;19459;53.044;8.910;2022-09-13T05:14:09;16.50;99.90
33095;DHT22;19459;53.044;8.910;2022-09-13T05:16:36;16.50;99.90
33095;DHT22;19459;53.044;8.910;2022-09-13T05:19:02;16.50;99.90
33095;DHT22;19459;53.044;8.910;2022-09-13T05:21:29;16.60;99.90
33095;DHT22;19459;53.044;8.910;2022-09-13T05:23:56;16.60;99.90
33095;DHT22;19459;53.044;8.910;2022-09-13T05:26:24;16.50;99.90
33095;DHT22;19459;53.044;8.910;2022-09-13T05:28:51;16.50;99.90
33095;DHT22;19459;53.044;8.910;2022-09-13T05:31:18;16.50;99.90
33095;DHT22;19459;53.044;8.910;2022-09-13T05:33:51;16.60;99.90
33095;DHT22;19459;53.044;8.910;2022-09-13T05:36:18;16.60;99.90
33095;DHT22;19459;53.044;8.910;2022-09-13T05:38:44;16.60;99.90
33095;DHT22;19459;53.044;8.910;2022-09-13T05:41:10;16.70;99.90
33095;DHT22;19459;53.044;8.910;2022-09-13T05:43:36;16.70;99.90
33095;DHT22;19459;53.044;8.910;2022-09-13T05:46:12;16.70;99.90
33095;DHT22;19459;53.044;8.910;2022-09-13T05:48:40;16.80;99.90
33095;DHT22;19459;53.044;8.910;2022-09-13T05:51:08;16.70;99.90
33095;DHT22;19459;53.044;8.910;2022-09-13T05:53:40;16.80;99.90
33095;DHT22;19459;53.044;8.910;2022-09-13T05:56:08;16.80;99.90
33095;DHT22;19459;53.044;8.910;2022-09-13T05:58:40;16.80;99.90
33095;DHT22;19459;53.044;8.910;2022-09-13T06:01:08;16.80;99.90
33095;DHT22;19459;53.044;8.910;2022-09-13T06:03:35;16.80;99.90
33095;DHT22;19459;53.044;8.910;2022-09-13T06:06:02;16.90;99.90
33095;DHT22;19459;53.044;8.910;2022-09-13T06:08:31;16.80;99.90
33095;DHT22;19459;53.044;8.910;2022-09-13T06:11:09;16.80;99.90
33095;DHT22;19459;53.044;8.910;2022-09-13T06:13:36;16.80;99.90
33095;DHT22;19459;53.044;8.910;2022-09-13T06:16:25;16.90;99.90
33095;DHT22;19459;53.044;8.910;2022-09-13T06:18:53;16.90;99.90
33095;DHT22;19459;53.044;8.910;2022-09-13T06:21:26;16.90;99.90
33095;DHT22;19459;53.044;8.910;2022-09-13T06:24:22;16.90;99.90
33095;DHT22;19459;53.044;8.910;2022-09-13T06:26:49;16.90;99.90
33095;DHT22;19459;53.044;8.910;2022-09-13T06:29:16;16.90;99.90
33095;DHT22;19459;53.044;8.910;2022-09-13T06:31:42;17.00;99.90
33095;DHT22;19459;53.044;8.910;2022-09-13T06:34:10;16.90;99.90
33095;DHT22;19459;53.044;8.910;2022-09-13T06:36:42;16.90;99.90
33095;DHT22;19459;53.044;8.910;2022-09-13T06:39:07;16.90;99.90
33095;DHT22;19459;53.044;8.910;2022-09-13T06:41:33;16.90;99.90
33095;DHT22;19459;53.044;8.910;2022-09-13T06:44:00;16.90;99.90
33095;DHT22;19459;53.044;8.910;2022-09-13T06:46:32;16.90;99.90
33095;DHT22;19459;53.044;8.910;2022-09-13T06:49:00;16.90;99.90
33095;DHT22;19459;53.044;8.910;2022-09-13T06:51:28;16.90;99.90
33095;DHT22;19459;53.044;8.910;2022-09-13T06:53:56;17.00;99.90
33095;DHT22;19459;53.044;8.910;2022-09-13T06:56:24;17.00;99.90
33095;DHT22;19459;53.044;8.910;2022-09-13T06:58:54;17.00;99.90
33095;DHT22;19459;53.044;8.910;2022-09-13T07:01:27;17.00;99.90
33095;DHT22;19459;53.044;8.910;2022-09-13T07:04:00;17.00;99.90
33095;DHT22;19459;53.044;8.910;2022-09-13T07:06:39;17.00;99.90
33095;DHT22;19459;53.044;8.910;2022-09-13T07:09:09;17.00;99.90
33095;DHT22;19459;53.044;8.910;2022-09-13T07:11:38;17.00;99.90
33095;DHT22;19459;53.044;8.910;2022-09-13T07:14:05;17.10;99.90
33095;DHT22;19459;53.044;8.910;2022-09-13T07:16:35;17.20;99.90
33095;DHT22;19459;53.044;8.910;2022-09-13T07:19:07;17.30;99.90
33095;DHT22;19459;53.044;8.910;2022-09-13T07:21:37;17.30;99.90
33095;DHT22;19459;53.044;8.910;2022-09-13T07:24:03;17.30;99.90
33095;DHT22;19459;53.044;8.910;2022-09-13T07:26:29;17.30;99.90
33095;DHT22;19459;53.044;8.910;2022-09-13T07:28:58;17.30;99.90
33095;DHT22;19459;53.044;8.910;2022-09-13T07:31:27;17.40;99.90
33095;DHT22;19459;53.044;8.910;2022-09-13T07:34:01;17.50;99.90
33095;DHT22;19459;53.044;8.910;2022-09-13T07:36:30;17.50;99.90
33095;DHT22;19459;53.044;8.910;2022-09-13T07:38:58;17.50;99.90
33095;DHT22;19459;53.044;8.910;2022-09-13T07:41:26;17.60;99.90
33095;DHT22;19459;53.044;8.910;2022-09-13T07:43:53;17.60;99.90
33095;DHT22;19459;53.044;8.910;2022-09-13T07:46:21;17.70;99.90
33095;DHT22;19459;53.044;8.910;2022-09-13T07:48:52;17.80;99.90
33095;DHT22;19459;53.044;8.910;2022-09-13T07:51:21;17.90;99.90
33095;DHT22;19459;53.044;8.910;2022-09-13T07:53:49;17.90;99.90
33095;DHT22;19459;53.044;8.910;2022-09-13T07:56:20;18.00;99.90
33095;DHT22;19459;53.044;8.910;2022-09-13T07:58:49;18.10;99.90
33095;DHT22;19459;53.044;8.910;2022-09-13T08:01:23;18.30;99.90
33095;DHT22;19459;53.044;8.910;2022-09-13T08:03:58;18.30;99.90
33095;DHT22;19459;53.044;8.910;2022-09-13T08:06:28;18.40;99.90
33095;DHT22;19459;53.044;8.910;2022-09-13T08:08:56;18.40;99.90
33095;DHT22;19459;53.044;8.910;2022-09-13T08:11:34;18.40;99.90
33095;DHT22;19459;53.044;8.910;2022-09-13T08:14:02;18.50;99.90
33095;DHT22;19459;53.044;8.910;2022-09-13T08:16:29;18.50;99.90
33095;DHT22;19459;53.044;8.910;2022-09-13T08:18:57;18.60;99.90
33095;DHT22;19459;53.044;8.910;2022-09-13T08:21:25;18.60;99.90
33095;DHT22;19459;53.044;8.910;2022-09-13T08:23:55;18.50;99.90
33095;DHT22;19459;53.044;8.910;2022-09-13T08:26:24;18.50;99.90
33095;DHT22;19459;53.044;8.910;2022-09-13T08:28:55;18.50;99.90
33095;DHT22;19459;53.044;8.910;2022-09-13T08:31:25;18.60;99.90
33095;DHT22;19459;53.044;8.910;2022-09-13T08:33:52;18.60;99.90
33095;DHT22;19459;53.044;8.910;2022-09-13T08:36:18;18.70;99.90
33095;DHT22;19459;53.044;8.910;2022-09-13T08:38:49;18.80;99.90
33095;DHT22;19459;53.044;8.910;2022-09-13T08:46:42;18.60;99.90
33095;DHT22;19459;53.044;8.910;2022-09-13T08:49:20;18.60;99.90
33095;DHT22;19459;53.044;8.910;2022-09-13T08:54:40;18.50;99.90
33095;DHT22;19459;53.044;8.910;2022-09-13T09:00:00;18.40;99.90
33095;DHT22;19459;53.044;8.910;2022-09-13T09:05:21;18.00;99.90
33095;DHT22;19459;53.044;8.910;2022-09-13T09:10:32;17.80;99.90
33095;DHT22;19459;53.044;8.910;2022-09-13T09:13:16;17.80;99.90
33095;DHT22;19459;53.044;8.910;2022-09-13T09:16:40;17.80;99.90
33095;DHT22;19459;53.044;8.910;2022-09-13T09:19:28;17.90;99.90
33095;DHT22;19459;53.044;8.910;2022-09-13T09:22:01;18.00;99.90
33095;DHT22;19459;53.044;8.910;2022-09-13T09:24:34;18.20;99.90
33095;DHT22;19459;53.044;8.910;2022-09-13T09:27:13;18.30;99.90
33095;DHT22;19459;53.044;8.910;2022-09-13T09:33:56;18.80;99.90
33095;DHT22;19459;53.044;8.910;2022-09-13T09:36:50;19.00;99.90
33095;DHT22;19459;53.044;8.910;2022-09-13T09:39:29;19.00;99.90
33095;DHT22;19459;53.044;8.910;2022-09-13T09:41:58;19.20;99.90
33095;DHT22;19459;53.044;8.910;2022-09-13T09:44:29;19.70;99.90
33095;DHT22;19459;53.044;8.910;2022-09-13T09:47:14;19.90;99.90
33095;DHT22;19459;53.044;8.910;2022-09-13T09:49:46;20.30;99.90
33095;DHT22;19459;53.044;8.910;2022-09-13T09:52:52;20.70;99.90
33095;DHT22;19459;53.044;8.910;2022-09-13T09:57:56;20.60;99.90
33095;DHT22;19459;53.044;8.910;2022-09-13T10:00:27;20.40;99.90
33095;DHT22;19459;53.044;8.910;2022-09-13T10:02:58;20.20;99.90
33095;DHT22;19459;53.044;8.910;2022-09-13T10:05:29;20.00;99.90
33095;DHT22;19459;53.044;8.910;2022-09-13T10:08:04;19.90;99.90
33095;DHT22;19459;53.044;8.910;2022-09-13T10:10:52;19.90;99.90
33095;DHT22;19459;53.044;8.910;2022-09-13T10:13:20;19.90;99.90
33095;DHT22;19459;53.044;8.910;2022-09-13T10:15:55;20.10;99.90
33095;DHT22;19459;53.044;8.910;2022-09-13T10:18:33;20.00;99.90
33095;DHT22;19459;53.044;8.910;2022-09-13T10:21:03;20.20;99.90
33095;DHT22;19459;53.044;8.910;2022-09-13T10:23:31;20.80;99.90
33095;DHT22;19459;53.044;8.910;2022-09-13T10:26:08;20.90;99.90
33095;DHT22;19459;53.044;8.910;2022-09-13T10:31:14;21.60;99.90
33095;DHT22;19459;53.044;8.910;2022-09-13T10:33:50;21.60;99.90
33095;DHT22;19459;53.044;8.910;2022-09-13T10:36:21;21.40;99.90
33095;DHT22;19459;53.044;8.910;2022-09-13T10:39:00;21.60;99.90
33095;DHT22;19459;53.044;8.910;2022-09-13T10:41:31;21.70;99.90
33095;DHT22;19459;53.044;8.910;2022-09-13T10:44:01;22.20;99.90
33095;DHT22;19459;53.044;8.910;2022-09-13T10:46:34;22.50;99.90
33095;DHT22;19459;53.044;8.910;2022-09-13T10:49:02;22.80;99.90
33095;DHT22;19459;53.044;8.910;2022-09-13T10:51:32;23.00;99.90
33095;DHT22;19459;53.044;8.910;2022-09-13T10:54:17;23.10;99.90
33095;DHT22;19459;53.044;8.910;2022-09-13T10:56:45;23.60;99.90
33095;DHT22;19459;53.044;8.910;2022-09-13T11:14:24;23.20;98.90
33095;DHT22;19459;53.044;8.910;2022-09-13T11:17:02;22.60;97.50
33095;DHT22;19459;53.044;8.910;2022-09-13T11:23:33;22.30;98.00
33095;DHT22;19459;53.044;8.910;2022-09-13T11:26:27;22.50;98.30
33095;DHT22;19459;53.044;8.910;2022-09-13T11:32:17;23.50;97.30
33095;DHT22;19459;53.044;8.910;2022-09-13T11:38:33;22.60;97.50
33095;DHT22;19459;53.044;8.910;2022-09-13T11:55:31;23.20;96.50
33095;DHT22;19459;53.044;8.910;2022-09-13T11:58:30;23.30;95.20
33095;DHT22;19459;53.044;8.910;2022-09-13T12:01:02;23.90;95.50
33095;DHT22;19459;53.044;8.910;2022-09-13T12:06:24;24.70;93.70
33095;DHT22;19459;53.044;8.910;2022-09-13T12:09:15;24.50;93.50
33095;DHT22;19459;53.044;8.910;2022-09-13T12:12:05;23.40;94.00
33095;DHT22;19459;53.044;8.910;2022-09-13T12:14:56;23.30;95.00
33095;DHT22;19459;53.044;8.910;2022-09-13T12:17:38;23.20;94.80
33095;DHT22;19459;53.044;8.910;2022-09-13T12:20:17;23.40;94.50
33095;DHT22;19459;53.044;8.910;2022-09-13T12:22:58;23.50;94.50
33095;DHT22;19459;53.044;8.910;2022-09-13T12:28:56;23.80;93.10
33095;DHT22;19459;53.044;8.910;2022-09-13T12:31:29;24.00;93.70
33095;DHT22;19459;53.044;8.910;2022-09-13T12:33:56;24.30;93.10
33095;DHT22;19459;53.044;8.910;2022-09-13T12:36:58;24.40;93.20
33095;DHT22;19459;53.044;8.910;2022-09-13T12:39:52;24.10;92.90
33095;DHT22;19459;53.044;8.910;2022-09-13T12:42:46;24.70;93.60
33095;DHT22;19459;53.044;8.910;2022-09-13T12:55:10;25.10;91.20
33095;DHT22;19459;53.044;8.910;2022-09-13T13:01:10;25.40;91.00
33095;DHT22;19459;53.044;8.910;2022-09-13T13:04:29;25.40;90.70
33095;DHT22;19459;53.044;8.910;2022-09-13T13:06:37;25.40;91.30
33095;DHT22;19459;53.044;8.910;2022-09-13T13:09:37;25.40;91.30
33095;DHT22;19459;53.044;8.910;2022-09-13T13:14:56;25.50;91.00
33095;DHT22;19459;53.044;8.910;2022-09-13T13:17:46;25.60;90.50
33095;DHT22;19459;53.044;8.910;2022-09-13T13:20:43;25.30;90.60
33095;DHT22;19459;53.044;8.910;2022-09-13T13:23:37;25.50;91.10
33095;DHT22;19459;53.044;8.910;2022-09-13T13:34:01;23.10;93.10
33095;DHT22;19459;53.044;8.910;2022-09-13T13:36:31;23.10;93.30
33095;DHT22;19459;53.044;8.910;2022-09-13T13:41:58;23.20;92.30
33095;DHT22;19459;53.044;8.910;2022-09-13T13:59:55;22.60;92.90
33095;DHT22;19459;53.044;8.910;2022-09-13T14:02:30;22.70;92.60
33095;DHT22;19459;53.044;8.910;2022-09-13T14:13:53;22.60;92.90
33095;DHT22;19459;53.044;8.910;2022-09-13T14:19:31;22.80;93.40
33095;DHT22;19459;53.044;8.910;2022-09-13T14:24:40;22.80;93.00
33095;DHT22;19459;53.044;8.910;2022-09-13T14:27:27;22.80;92.50
33095;DHT22;19459;53.044;8.910;2022-09-13T14:30:01;23.00;92.70
33095;DHT22;19459;53.044;8.910;2022-09-13T14:32:43;23.00;93.30
33095;DHT22;19459;53.044;8.910;2022-09-13T14:38:35;22.90;93.20
33095;DHT22;19459;53.044;8.910;2022-09-13T14:41:16;22.60;92.90
33095;DHT22;19459;53.044;8.910;2022-09-13T14:43:45;22.40;92.70
33095;DHT22;19459;53.044;8.910;2022-09-13T14:49:02;22.50;93.20
33095;DHT22;19459;53.044;8.910;2022-09-13T14:51:47;22.50;93.30
33095;DHT22;19459;53.044;8.910;2022-09-13T14:56:58;22.30;93.70
33095;DHT22;19459;53.044;8.910;2022-09-13T14:59:28;22.30;93.80
33095;DHT22;19459;53.044;8.910;2022-09-13T15:02:03;22.40;93.70
33095;DHT22;19459;53.044;8.910;2022-09-13T15:04:30;22.50;93.50
33095;DHT22;19459;53.044;8.910;2022-09-13T15:09:57;22.70;93.30
33095;DHT22;19459;53.044;8.910;2022-09-13T15:12:34;22.60;93.00
33095;DHT22;19459;53.044;8.910;2022-09-13T15:23:27;22.10;92.60
33095;DHT22;19459;53.044;8.910;2022-09-13T15:26:06;22.10;93.00
33095;DHT22;19459;53.044;8.910;2022-09-13T15:31:05;22.10;94.80
33095;DHT22;19459;53.044;8.910;2022-09-13T15:33:33;22.10;95.90
33095;DHT22;19459;53.044;8.910;2022-09-13T15:41:39;21.60;95.60
33095;DHT22;19459;53.044;8.910;2022-09-13T15:44:07;21.50;96.10
33095;DHT22;19459;53.044;8.910;2022-09-13T15:46:51;21.30;96.30
33095;DHT22;19459;53.044;8.910;2022-09-13T15:49:19;21.20;97.00
33095;DHT22;19459;53.044;8.910;2022-09-13T15:51:50;21.00;97.60
33095;DHT22;19459;53.044;8.910;2022-09-13T15:54:17;20.90;98.30
33095;DHT22;19459;53.044;8.910;2022-09-13T15:56:45;21.00;98.70
33095;DHT22;19459;53.044;8.910;2022-09-13T15:59:16;20.80;99.30
33095;DHT22;19459;53.044;8.910;2022-09-13T16:01:50;20.60;98.80
33095;DHT22;19459;53.044;8.910;2022-09-13T16:04:16;20.60;99.50
33095;DHT22;19459;53.044;8.910;2022-09-13T16:06:43;20.50;99.30
33095;DHT22;19459;53.044;8.910;2022-09-13T16:09:29;20.40;99.60
33095;DHT22;19459;53.044;8.910;2022-09-13T16:11:55;20.30;99.90
33095;DHT22;19459;53.044;8.910;2022-09-13T16:14:21;20.30;99.80
33095;DHT22;19459;53.044;8.910;2022-09-13T16:16:47;20.30;99.90
33095;DHT22;19459;53.044;8.910;2022-09-13T16:19:21;20.10;99.70
33095;DHT22;19459;53.044;8.910;2022-09-13T16:21:47;20.10;99.30
33095;DHT22;19459;53.044;8.910;2022-09-13T16:24:14;20.00;99.90
33095;DHT22;19459;53.044;8.910;2022-09-13T16:26:41;19.80;99.40
33095;DHT22;19459;53.044;8.910;2022-09-13T16:29:09;19.80;99.40
33095;DHT22;19459;53.044;8.910;2022-09-13T16:31:36;19.80;99.40
33095;DHT22;19459;53.044;8.910;2022-09-13T16:34:02;19.70;99.40
33095;DHT22;19459;53.044;8.910;2022-09-13T16:36:27;19.70;99.60
33095;DHT22;19459;53.044;8.910;2022-09-13T16:38:56;19.70;99.80
33095;DHT22;19459;53.044;8.910;2022-09-13T16:41:22;19.70;99.90
33095;DHT22;19459;53.044;8.910;2022-09-13T16:43:48;19.70;99.90
33095;DHT22;19459;53.044;8.910;2022-09-13T16:46:14;19.70;99.80
33095;DHT22;19459;53.044;8.910;2022-09-13T16:48:40;19.60;99.90
33095;DHT22;19459;53.044;8.910;2022-09-13T16:51:09;19.60;99.90
33095;DHT22;19459;53.044;8.910;2022-09-13T16:53:38;19.50;99.90
33095;DHT22;19459;53.044;8.910;2022-09-13T16:56:11;19.40;99.90
33095;DHT22;19459;53.044;8.910;2022-09-13T16:58:40;19.30;99.90
33095;DHT22;19459;53.044;8.910;2022-09-13T17:01:09;19.20;99.90
33095;DHT22;19459;53.044;8.910;2022-09-13T17:03:37;19.10;99.90
33095;DHT22;19459;53.044;8.910;2022-09-13T17:06:08;19.10;99.90
33095;DHT22;19459;53.044;8.910;2022-09-13T17:08:37;19.00;99.90
33095;DHT22;19459;53.044;8.910;2022-09-13T17:11:06;19.00;99.80
33095;DHT22;19459;53.044;8.910;2022-09-13T17:13:34;18.90;99.40
33095;DHT22;19459;53.044;8.910;2022-09-13T17:16:00;18.80;99.30
33095;DHT22;19459;53.044;8.910;2022-09-13T17:18:26;18.70;99.00
33095;DHT22;19459;53.044;8.910;2022-09-13T17:20:52;18.70;99.40
33095;DHT22;19459;53.044;8.910;2022-09-13T17:23:18;18.60;99.20
33095;DHT22;19459;53.044;8.910;2022-09-13T17:25:48;18.60;99.90
33095;DHT22;19459;53.044;8.910;2022-09-13T17:28:15;18.60;99.90
33095;DHT22;19459;53.044;8.910;2022-09-13T17:30:41;18.50;99.90
33095;DHT22;19459;53.044;8.910;2022-09-13T17:33:08;18.50;99.90
33095;DHT22;19459;53.044;8.910;2022-09-13T17:35:34;18.40;99.90
33095;DHT22;19459;53.044;8.910;2022-09-13T17:38:01;18.30;99.90
33095;DHT22;19459;53.044;8.910;2022-09-13T17:40:29;18.30;99.90
33095;DHT22;19459;53.044;8.910;2022-09-13T17:42:56;18.30;99.90
33095;DHT22;19459;53.044;8.910;2022-09-13T17:45:22;18.20;99.90
33095;DHT22;19459;53.044;8.910;2022-09-13T17:47:51;18.10;99.90
33095;DHT22;19459;53.044;8.910;2022-09-13T17:50:18;18.10;99.90
33095;DHT22;19459;53.044;8.910;2022-09-13T17:52:44;18.10;99.90
33095;DHT22;19459;53.044;8.910;2022-09-13T17:55:10;18.00;99.90
33095;DHT22;19459;53.044;8.910;2022-09-13T17:57:37;18.00;99.90
33095;DHT22;19459;53.044;8.910;2022-09-13T18:00:05;17.90;99.90
33095;DHT22;19459;53.044;8.910;2022-09-13T18:02:34;17.90;99.90
33095;DHT22;19459;53.044;8.910;2022-09-13T18:05:01;17.80;99.90
33095;DHT22;19459;53.044;8.910;2022-09-13T18:07:27;17.80;99.90
33095;DHT22;19459;53.044;8.910;2022-09-13T18:09:53;17.70;99.90
33095;DHT22;19459;53.044;8.910;2022-09-13T18:12:18;17.70;99.90
33095;DHT22;19459;53.044;8.910;2022-09-13T18:14:44;17.60;99.90
33095;DHT22;19459;53.044;8.910;2022-09-13T18:17:10;17.50;99.90
33095;DHT22;19459;53.044;8.910;2022-09-13T18:19:40;17.60;99.90
33095;DHT22;19459;53.044;8.910;2022-09-13T18:22:07;17.50;99.90
33095;DHT22;19459;53.044;8.910;2022-09-13T18:24:35;17.50;99.90
33095;DHT22;19459;53.044;8.910;2022-09-13T18:27:01;17.40;99.90
33095;DHT22;19459;53.044;8.910;2022-09-13T18:29:27;17.40;99.90
33095;DHT22;19459;53.044;8.910;2022-09-13T18:31:56;17.40;99.90
33095;DHT22;19459;53.044;8.910;2022-09-13T18:34:22;17.30;99.90
33095;DHT22;19459;53.044;8.910;2022-09-13T18:36:48;17.20;99.90
33095;DHT22;19459;53.044;8.910;2022-09-13T18:39:19;17.20;99.90
33095;DHT22;19459;53.044;8.910;2022-09-13T18:41:47;17.10;99.90
33095;DHT22;19459;53.044;8.910;2022-09-13T18:44:15;17.10;99.90
33095;DHT22;19459;53.044;8.910;2022-09-13T18:46:41;17.00;99.90
33095;DHT22;19459;53.044;8.910;2022-09-13T18:49:08;16.90;99.90
33095;DHT22;19459;53.044;8.910;2022-09-13T18:51:39;16.90;99.90
33095;DHT22;19459;53.044;8.910;2022-09-13T18:54:09;16.80;99.90
33095;DHT22;19459;53.044;8.910;2022-09-13T18:56:40;16.80;99.90
33095;DHT22;19459;53.044;8.910;2022-09-13T18:59:06;16.80;99.90
33095;DHT22;19459;53.044;8.910;2022-09-13T19:01:35;16.80;99.90
33095;DHT22;19459;53.044;8.910;2022-09-13T19:04:09;16.80;99.90
33095;DHT22;19459;53.044;8.910;2022-09-13T19:06:50;16.70;99.90
33095;DHT22;19459;53.044;8.910;2022-09-13T19:09:18;16.70;99.90
33095;DHT22;19459;53.044;8.910;2022-09-13T19:11:47;16.60;99.90
33095;DHT22;19459;53.044;8.910;2022-09-13T19:14:18;16.60;99.90
33095;DHT22;19459;53.044;8.910;2022-09-13T19:16:47;16.50;99.90
33095;DHT22;19459;53.044;8.910;2022-09-13T19:19:13;16.50;99.90
33095;DHT22;19459;53.044;8.910;2022-09-13T19:21:40;16.50;99.90
33095;DHT22;19459;53.044;8.910;2022-09-13T19:24:06;16.40;99.90
33095;DHT22;19459;53.044;8.910;2022-09-13T19:26:37;16.30;99.90
33095;DHT22;19459;53.044;8.910;2022-09-13T19:29:06;16.30;99.90
33095;DHT22;19459;53.044;8.910;2022-09-13T19:31:39;16.30;99.90
33095;DHT22;19459;53.044;8.910;2022-09-13T19:34:07;16.20;99.90